Aggieland, Texas
Current Conditions -  °F | °C
As of 7:53 PM on Sunday 21 Dec 2014 (Local Time) from KCLL Reporting Station
Overcast Overcast  
Wind Chill: 13°   Ceiling: 2200
Heat Index: 13°   Visibility: 10mi
Dew Point: 10°   Wind: 7mph
Humidity: 83%   Direction: 160°SSE
Pressure: 29.89"   Gusts: NA
Location:  30.5943°N, 96.3574°W
Report Text: KCLL 220153Z 16006KT 10SM OVC022 13/10 A2989 RMK AO2 SLP120 T01280100
Loading
Personal Weather Stations






























Interactive Weather Map New forecast layout! Learn more

10-Day Weather Forecast

Advertisements
Track Severe Weather on mobile